Time;durP1;ratioP1;P1;durP2;ratioP2;P2;SDS_P1;SDS_P2;PMS_P1;PMS_P2;Temp;Humidity;BMP_temperature;BMP_pressure;BME280_temperature;BME280_humidity;BME280_pressure;Samples;Min_cycle;Max_cycle;Signal;HPM_P1;HPM_P2
2023/10/01 00:00:46;;;;;;;1999.90;999.90;;;18.20;99.90;;;;;;5052818;28;20051;-75
2023/10/01 00:03:14;;;;;;;1999.90;999.90;;;18.10;99.90;;;;;;5052767;28;20094;-75
2023/10/01 00:05:43;;;;;;;1999.90;999.90;;;18.10;99.90;;;;;;5052495;28;20067;-78
2023/10/01 00:08:08;;;;;;;1999.90;999.90;;;18.10;99.90;;;;;;5044695;28;20025;-78
2023/10/01 00:10:34;;;;;;;1999.90;999.90;;;17.90;99.90;;;;;;5035023;28;20054;-75
2023/10/01 00:13:01;;;;;;;1999.90;999.90;;;17.90;99.90;;;;;;5054039;28;20491;-78
2023/10/01 00:15:27;;;;;;;1999.90;999.90;;;17.90;99.90;;;;;;5053814;28;20036;-75
2023/10/01 00:17:53;;;;;;;1999.90;999.90;;;17.90;99.90;;;;;;5053343;28;20032;-77
2023/10/01 00:20:23;;;;;;;1999.90;999.90;;;17.80;99.90;;;;;;5052012;28;20063;-78
2023/10/01 00:22:59;;;;;;;1999.90;999.90;;;17.90;99.90;;;;;;5053267;28;20077;-75
2023/10/01 00:25:27;;;;;;;1999.90;999.90;;;17.80;99.90;;;;;;5053555;28;20041;-75
2023/10/01 00:27:53;;;;;;;1999.90;999.90;;;17.80;99.90;;;;;;5053569;28;20024;-75
2023/10/01 00:30:21;;;;;;;1999.90;999.90;;;17.80;99.90;;;;;;5053629;28;20009;-78
2023/10/01 00:32:48;;;;;;;1999.90;999.90;;;17.80;99.90;;;;;;5053638;28;20025;-78
2023/10/01 00:35:13;;;;;;;1999.90;999.90;;;17.80;99.90;;;;;;5053968;28;20063;-75
2023/10/01 00:37:39;;;;;;;1999.90;999.90;;;17.80;99.90;;;;;;5053385;28;20029;-75
2023/10/01 00:40:08;;;;;;;1999.90;999.90;;;17.90;99.90;;;;;;5053576;28;20029;-75
2023/10/01 00:42:34;;;;;;;1999.90;999.90;;;17.90;99.90;;;;;;5053659;28;20043;-78
2023/10/01 00:45:07;;;;;;;1999.90;999.90;;;17.90;99.90;;;;;;5039532;28;20029;-75
2023/10/01 00:47:35;;;;;;;1999.90;999.90;;;17.90;99.90;;;;;;5032033;28;20021;-77
2023/10/01 00:50:05;;;;;;;1999.90;999.90;;;17.90;99.90;;;;;;5032078;28;20072;-77
2023/10/01 00:52:30;;;;;;;1999.90;999.90;;;17.90;99.90;;;;;;5033321;28;20092;-77
2023/10/01 00:54:56;;;;;;;1999.90;999.90;;;17.90;99.90;;;;;;5033230;28;20536;-77
2023/10/01 00:57:22;;;;;;;1999.90;999.90;;;17.80;99.90;;;;;;5043206;28;20112;-77
2023/10/01 00:59:50;;;;;;;1999.90;999.90;;;17.80;99.90;;;;;;5052463;28;20031;-75
2023/10/01 01:02:16;;;;;;;1999.90;999.90;;;17.80;99.90;;;;;;5053241;28;20025;-75
2023/10/01 01:04:45;;;;;;;1999.90;999.90;;;17.80;99.90;;;;;;5052641;28;20033;-75
2023/10/01 01:07:16;;;;;;;1999.90;999.90;;;17.80;99.90;;;;;;5045022;28;20480;-76
2023/10/01 01:09:42;;;;;;;1999.90;999.90;;;17.70;99.90;;;;;;5044692;28;20052;-77
2023/10/01 01:12:08;;;;;;;1999.90;999.90;;;17.70;99.90;;;;;;5052862;28;20013;-78
2023/10/01 01:14:35;;;;;;;1999.90;999.90;;;17.70;99.90;;;;;;5051536;28;20087;-76
2023/10/01 01:17:01;;;;;;;1999.90;999.90;;;17.70;99.90;;;;;;5052744;28;20027;-75
2023/10/01 01:19:26;;;;;;;1999.90;999.90;;;17.70;99.90;;;;;;5051466;28;20032;-78
2023/10/01 01:21:52;;;;;;;1999.90;999.90;;;17.60;99.90;;;;;;5052767;28;20078;-77
2023/10/01 01:24:22;;;;;;;1999.90;999.90;;;17.70;99.90;;;;;;5052675;28;20106;-75
2023/10/01 01:26:51;;;;;;;1999.90;999.90;;;17.70;99.90;;;;;;5052635;28;20072;-77
2023/10/01 01:29:29;;;;;;;1999.90;999.90;;;17.70;99.90;;;;;;5052616;28;20174;-75
2023/10/01 01:32:15;;;;;;;1999.90;999.90;;;17.70;99.90;;;;;;5052767;28;20103;-78
2023/10/01 01:34:43;;;;;;;1999.90;999.90;;;17.60;99.90;;;;;;5051297;28;20503;-78
2023/10/01 01:37:19;;;;;;;1999.90;999.90;;;17.60;99.90;;;;;;5051291;28;20365;-77
2023/10/01 01:39:49;;;;;;;1999.90;999.90;;;17.60;99.90;;;;;;5032611;28;20539;-77
2023/10/01 01:42:21;;;;;;;1999.90;999.90;;;17.60;99.90;;;;;;5032629;28;20025;-75
2023/10/01 01:45:15;;;;;;;1999.90;999.90;;;17.50;99.90;;;;;;5032213;28;20033;-77
2023/10/01 01:47:38;;;;;;;1999.90;999.90;;;17.50;99.90;;;;;;5032618;28;20053;-77
2023/10/01 01:50:26;;;;;;;1999.90;999.90;;;17.50;99.90;;;;;;5041516;28;20036;-75
2023/10/01 01:52:53;;;;;;;1999.90;999.90;;;17.50;99.90;;;;;;5051070;28;20416;-75
2023/10/01 01:55:23;;;;;;;1999.90;999.90;;;17.60;99.90;;;;;;5036557;28;20037;-75
2023/10/01 01:58:04;;;;;;;1999.90;999.90;;;17.60;99.90;;;;;;5043532;28;20080;-75
2023/10/01 02:00:31;;;;;;;1999.90;999.90;;;17.60;99.90;;;;;;5042366;28;20021;-78
2023/10/01 02:03:10;;;;;;;1999.90;999.90;;;17.70;99.90;;;;;;5052142;28;20079;-75
2023/10/01 02:05:42;;;;;;;1999.90;999.90;;;17.70;99.90;;;;;;5051536;28;20134;-78
2023/10/01 02:08:10;;;;;;;1999.90;999.90;;;17.60;99.90;;;;;;5048040;28;20024;-75
2023/10/01 02:10:45;;;;;;;1999.90;999.90;;;17.60;99.90;;;;;;5037550;28;20017;-78
2023/10/01 02:13:16;;;;;;;1999.90;999.90;;;17.60;99.90;;;;;;5056282;28;20498;-78
2023/10/01 02:15:45;;;;;;;1999.90;999.90;;;17.60;99.90;;;;;;5056019;28;20021;-78
2023/10/01 02:18:16;;;;;;;1999.90;999.90;;;17.50;99.90;;;;;;5056201;28;20036;-77
2023/10/01 02:20:51;;;;;;;1999.90;999.90;;;17.50;99.90;;;;;;5054735;28;20043;-75
2023/10/01 02:23:25;;;;;;;1999.90;999.90;;;17.50;99.90;;;;;;5054705;28;20017;-75
2023/10/01 02:25:52;;;;;;;1999.90;999.90;;;17.40;99.90;;;;;;5055816;28;20402;-78
2023/10/01 02:28:18;;;;;;;1999.90;999.90;;;17.40;99.90;;;;;;5056306;28;20376;-78
2023/10/01 02:30:44;;;;;;;1999.90;999.90;;;17.30;99.90;;;;;;5055869;28;20101;-78
2023/10/01 02:33:19;;;;;;;1999.90;999.90;;;17.30;99.90;;;;;;5055827;28;20032;-75
2023/10/01 02:35:49;;;;;;;1999.90;999.90;;;17.40;99.90;;;;;;5055878;28;20112;-75
2023/10/01 02:41:02;;;;;;;1999.90;999.90;;;17.30;99.90;;;;;;5055976;28;20032;-77
2023/10/01 02:43:36;;;;;;;1999.90;999.90;;;17.30;99.90;;;;;;5054389;28;20113;-77
2023/10/01 02:46:12;;;;;;;1999.90;999.90;;;17.20;99.90;;;;;;5034535;28;20045;-75
2023/10/01 02:48:42;;;;;;;1999.90;999.90;;;17.20;99.90;;;;;;5035867;28;20085;-75
2023/10/01 02:51:14;;;;;;;1999.90;999.90;;;17.20;99.90;;;;;;5034099;28;20025;-78
2023/10/01 02:54:01;;;;;;;1999.90;999.90;;;17.20;99.90;;;;;;5034329;28;20095;-77
2023/10/01 02:56:35;;;;;;;1999.90;999.90;;;17.20;99.90;;;;;;5037929;28;20056;-77
2023/10/01 02:59:13;;;;;;;1999.90;999.90;;;17.20;99.90;;;;;;5054001;28;20036;-75
2023/10/01 03:01:42;;;;;;;1999.90;999.90;;;17.20;99.90;;;;;;5054031;28;20099;-75
2023/10/01 03:04:16;;;;;;;1999.90;999.90;;;17.20;99.90;;;;;;5055138;28;20095;-78
2023/10/01 03:06:47;;;;;;;1999.90;999.90;;;17.20;99.90;;;;;;5037483;28;20488;-78
2023/10/01 03:09:34;;;;;;;1999.90;999.90;;;17.20;99.90;;;;;;5043842;28;20148;-77
2023/10/01 03:15:16;;;;;;;1999.90;999.90;;;17.20;99.90;;;;;;5055028;28;20515;-75
2023/10/01 03:17:56;;;;;;;1999.90;999.90;;;17.10;99.90;;;;;;5052726;28;20116;-75
2023/10/01 03:23:05;;;;;;;1999.90;999.90;;;17.10;99.90;;;;;;5055065;28;20059;-78
2023/10/01 03:25:40;;;;;;;1999.90;999.90;;;17.10;99.90;;;;;;5054895;28;20087;-75
2023/10/01 03:28:11;;;;;;;1999.90;999.90;;;17.20;99.90;;;;;;5054984;28;20413;-75
2023/10/01 03:30:40;;;;;;;1999.90;999.90;;;17.20;99.90;;;;;;5054856;28;20036;-78
2023/10/01 03:33:07;;;;;;;1999.90;999.90;;;17.20;99.90;;;;;;5054679;28;20017;-78
2023/10/01 03:35:36;;;;;;;1999.90;999.90;;;17.20;99.90;;;;;;5054483;28;20029;-78
2023/10/01 03:38:11;;;;;;;1999.90;999.90;;;17.20;99.90;;;;;;5054587;28;20039;-75
2023/10/01 03:41:20;;;;;;;1999.90;999.90;;;17.20;99.90;;;;;;5054340;28;20112;-75
2023/10/01 03:43:35;;;;;;;1999.90;999.90;;;17.10;99.90;;;;;;5045593;28;20048;-78
2023/10/01 03:46:14;;;;;;;1999.90;999.90;;;17.00;99.90;;;;;;5034641;28;20060;-78
2023/10/01 03:54:51;;;;;;;1999.90;999.90;;;16.90;99.90;;;;;;5034781;28;20036;-75
2023/10/01 03:57:11;;;;;;;1999.90;999.90;;;16.90;99.90;;;;;;5043382;28;20450;-77
2023/10/01 03:59:40;;;;;;;1999.90;999.90;;;16.90;99.90;;;;;;5052777;28;20025;-77
2023/10/01 04:02:27;;;;;;;1999.90;999.90;;;16.80;99.90;;;;;;5054453;28;20025;-75
2023/10/01 04:04:57;;;;;;;1999.90;999.90;;;16.60;99.90;;;;;;5053206;28;20064;-75
2023/10/01 04:07:40;;;;;;;1999.90;999.90;;;16.50;99.90;;;;;;5045964;28;20029;-75
2023/10/01 04:10:13;;;;;;;1999.90;999.90;;;16.40;99.90;;;;;;5039384;28;20021;-75
2023/10/01 04:12:44;;;;;;;1999.90;999.90;;;16.30;99.90;;;;;;5051384;28;20025;-75
2023/10/01 04:15:11;;;;;;;1999.90;999.90;;;16.30;99.90;;;;;;5053907;28;20036;-77
2023/10/01 04:17:36;;;;;;;1999.90;999.90;;;16.30;99.90;;;;;;5053838;28;20458;-75
2023/10/01 04:20:14;;;;;;;1999.90;999.90;;;16.20;99.90;;;;;;5053991;28;20075;-75
2023/10/01 04:22:40;;;;;;;1999.90;999.90;;;16.20;99.90;;;;;;5052434;28;20074;-75
2023/10/01 04:25:11;;;;;;;1999.90;999.90;;;16.30;99.90;;;;;;5052265;28;20044;-75
2023/10/01 04:27:42;;;;;;;1999.90;999.90;;;16.30;99.90;;;;;;5053555;28;20056;-75
2023/10/01 04:30:10;;;;;;;1999.90;999.90;;;16.30;99.90;;;;;;5052107;28;20032;-75
2023/10/01 04:32:36;;;;;;;1999.90;999.90;;;16.40;99.90;;;;;;5053648;28;20448;-75
2023/10/01 04:35:14;;;;;;;1999.90;999.90;;;16.50;99.90;;;;;;5053555;28;20025;-75
2023/10/01 04:37:41;;;;;;;1999.90;999.90;;;16.60;99.90;;;;;;5053476;28;20102;-78
2023/10/01 04:40:31;;;;;;;1999.90;999.90;;;16.60;99.90;;;;;;5053795;28;20040;-75
2023/10/01 04:43:02;;;;;;;1999.90;999.90;;;16.60;99.90;;;;;;5053217;28;20128;-75
2023/10/01 04:45:36;;;;;;;1999.90;999.90;;;16.60;99.90;;;;;;5035675;28;20083;-75
2023/10/01 04:48:10;;;;;;;1999.90;999.90;;;16.60;99.90;;;;;;5032162;28;20022;-78
2023/10/01 04:50:37;;;;;;;1999.90;999.90;;;16.60;99.90;;;;;;5033419;28;20032;-78
2023/10/01 04:53:07;;;;;;;1999.90;999.90;;;16.50;99.90;;;;;;5033266;28;20021;-78
2023/10/01 04:55:41;;;;;;;1999.90;999.90;;;16.40;99.90;;;;;;5031942;28;20025;-76
2023/10/01 04:58:13;;;;;;;1999.90;999.90;;;16.50;99.90;;;;;;5049468;28;20028;-75
2023/10/01 05:00:43;;;;;;;1999.90;999.90;;;16.50;99.90;;;;;;5052012;28;20464;-77
2023/10/01 05:03:14;;;;;;;1999.90;999.90;;;16.40;99.90;;;;;;5051681;28;20079;-78
2023/10/01 05:05:42;;;;;;;1999.90;999.90;;;16.40;99.90;;;;;;5052988;28;20108;-75
2023/10/01 05:08:12;;;;;;;1999.90;999.90;;;16.30;99.90;;;;;;5044880;28;20017;-78
2023/10/01 05:10:53;;;;;;;1999.90;999.90;;;16.20;99.90;;;;;;5033495;28;20083;-75
2023/10/01 05:13:20;;;;;;;1999.90;999.90;;;16.10;99.90;;;;;;5052861;28;20072;-75
2023/10/01 05:15:49;;;;;;;1999.90;999.90;;;16.10;99.90;;;;;;5051604;28;20393;-77
2023/10/01 05:18:16;;;;;;;1999.90;999.90;;;16.00;99.90;;;;;;5052927;28;20028;-78
2023/10/01 05:20:42;;;;;;;1999.90;999.90;;;16.00;99.90;;;;;;5052795;28;20017;-78
2023/10/01 05:23:07;;;;;;;1999.90;999.90;;;16.00;99.90;;;;;;5051294;28;20162;-75
2023/10/01 05:25:33;;;;;;;1999.90;999.90;;;16.00;99.90;;;;;;5051294;28;20526;-75
2023/10/01 05:28:03;;;;;;;1999.90;999.90;;;15.90;99.90;;;;;;5052624;28;20025;-75
2023/10/01 05:30:34;;;;;;;1999.90;999.90;;;15.90;99.90;;;;;;5050764;28;20060;-78
2023/10/01 05:33:05;;;;;;;1999.90;999.90;;;15.90;99.90;;;;;;5043572;28;20026;-75
2023/10/01 05:35:33;;;;;;;1999.90;999.90;;;15.90;99.90;;;;;;5032945;28;20022;-75
2023/10/01 05:38:02;;;;;;;1999.90;999.90;;;15.90;99.90;;;;;;5038349;28;20025;-75
2023/10/01 05:40:29;;;;;;;1999.90;999.90;;;15.90;99.90;;;;;;5052233;28;20021;-78
2023/10/01 05:43:12;;;;;;;1999.90;999.90;;;15.90;99.90;;;;;;5052473;28;20020;-78
2023/10/01 05:45:39;;;;;;;1999.90;999.90;;;16.00;99.90;;;;;;5033682;28;20030;-78
2023/10/01 05:48:10;;;;;;;1999.90;999.90;;;16.00;99.90;;;;;;5032560;28;20028;-78
2023/10/01 05:50:38;;;;;;;1999.90;999.90;;;16.10;99.90;;;;;;5033045;28;20022;-75
2023/10/01 05:53:04;;;;;;;1999.90;999.90;;;16.20;99.90;;;;;;5032567;28;20429;-77
2023/10/01 05:55:30;;;;;;;1999.90;999.90;;;16.20;99.90;;;;;;5032583;28;20056;-77
2023/10/01 05:58:12;;;;;;;1999.90;999.90;;;16.20;99.90;;;;;;5048711;28;20059;-77
2023/10/01 06:00:45;;;;;;;1999.90;999.90;;;16.20;99.90;;;;;;5051063;28;20032;-75
2023/10/01 06:03:15;;;;;;;1999.90;999.90;;;16.20;99.90;;;;;;5052326;28;20021;-74
2023/10/01 06:05:49;;;;;;;1999.90;999.90;;;16.20;99.90;;;;;;5051016;28;20079;-78
2023/10/01 06:08:17;;;;;;;1999.90;999.90;;;16.20;99.90;;;;;;5044207;28;20104;-78
2023/10/01 06:11:13;;;;;;;1999.90;999.90;;;16.10;99.90;;;;;;5034179;28;20079;-75
2023/10/01 06:13:51;;;;;;;1999.90;999.90;;;16.00;99.90;;;;;;5052354;28;20067;-75
2023/10/01 06:16:25;;;;;;;1999.90;999.90;;;15.90;99.90;;;;;;5045435;28;20113;-75
2023/10/01 06:18:58;;;;;;;1999.90;999.90;;;16.00;99.90;;;;;;5043480;28;20319;-75
2023/10/01 06:21:31;;;;;;;1999.90;999.90;;;15.90;99.90;;;;;;5052197;28;20021;-75
2023/10/01 06:24:04;;;;;;;1999.90;999.90;;;15.90;99.90;;;;;;5050851;28;20508;-77
2023/10/01 06:26:37;;;;;;;1999.90;999.90;;;15.90;99.90;;;;;;5051935;28;20043;-75
2023/10/01 06:29:05;;;;;;;1999.90;999.90;;;15.90;99.90;;;;;;5051872;28;20029;-78
2023/10/01 06:34:21;;;;;;;1999.90;999.90;;;15.80;99.90;;;;;;5052517;28;20553;-75
2023/10/01 06:36:51;;;;;;;1999.90;999.90;;;15.70;99.90;;;;;;5052469;28;20024;-78
2023/10/01 06:39:20;;;;;;;1999.90;999.90;;;15.60;99.90;;;;;;5050668;28;20029;-75
2023/10/01 06:41:48;;;;;;;1999.90;999.90;;;15.60;99.90;;;;;;5050688;28;20480;-75
2023/10/01 06:44:14;;;;;;;1999.90;999.90;;;15.60;99.90;;;;;;5044538;28;20025;-75
2023/10/01 06:46:40;;;;;;;1999.90;999.90;;;15.70;99.90;;;;;;5032310;28;20021;-78
2023/10/01 06:49:08;;;;;;;1999.90;999.90;;;15.70;99.90;;;;;;5031898;28;20582;-78
2023/10/01 06:51:43;;;;;;;1999.90;999.90;;;15.70;99.90;;;;;;5032753;28;20025;-78
2023/10/01 06:54:13;;;;;;;1999.90;999.90;;;15.80;99.90;;;;;;5034286;28;20057;-77
2023/10/01 06:56:44;;;;;;;1999.90;999.90;;;15.90;99.90;;;;;;5041924;28;20033;-75
2023/10/01 07:01:50;;;;;;;1999.90;999.90;;;16.10;99.90;;;;;;5055533;28;20057;-77
2023/10/01 07:04:20;;;;;;;1999.90;999.90;;;16.20;99.90;;;;;;5055093;28;20060;-78
2023/10/01 07:06:54;;;;;;;1999.90;999.90;;;16.40;99.90;;;;;;5050457;28;20116;-75
2023/10/01 07:09:41;;;;;;;1999.90;999.90;;;16.60;99.90;;;;;;5042451;28;20554;-75
2023/10/01 07:12:08;;;;;;;1999.90;999.90;;;16.80;99.90;;;;;;5048331;28;20033;-75
2023/10/01 07:14:50;;;;;;;1999.90;999.90;;;17.00;99.90;;;;;;5055027;28;20029;-75
2023/10/01 07:17:19;;;;;;;1999.90;999.90;;;17.10;99.90;;;;;;5053733;28;20097;-78
2023/10/01 07:20:00;;;;;;;1999.90;999.90;;;17.30;99.90;;;;;;5053323;28;20411;-75
2023/10/01 07:22:31;;;;;;;1999.90;999.90;;;17.50;99.90;;;;;;5055142;28;20025;-75
2023/10/01 07:24:59;;;;;;;1999.90;999.90;;;17.60;99.90;;;;;;5054560;28;20408;-78
2023/10/01 07:27:25;;;;;;;1999.90;999.90;;;17.70;99.90;;;;;;5055014;28;20104;-78
2023/10/01 07:29:54;;;;;;;1999.90;999.90;;;17.90;99.90;;;;;;5053483;28;20025;-78
2023/10/01 07:32:22;;;;;;;1999.90;999.90;;;18.10;99.90;;;;;;5055123;28;20037;-75
2023/10/01 07:34:55;;;;;;;1999.90;999.90;;;18.70;99.90;;;;;;5054616;28;20096;-76
2023/10/01 07:37:25;;;;;;;1999.90;999.90;;;20.00;99.90;;;;;;5053627;28;20033;-78
2023/10/01 07:39:55;;;;;;;1999.90;999.90;;;20.90;99.90;;;;;;5054515;28;20120;-78
2023/10/01 07:42:25;;;;;;;1999.90;999.90;;;21.30;99.90;;;;;;5053364;28;20047;-78
2023/10/01 07:44:52;;;;;;;1999.90;999.90;;;20.70;99.90;;;;;;5041751;28;20108;-76
2023/10/01 07:47:31;;;;;;;1999.90;999.90;;;20.20;99.90;;;;;;5033614;28;20071;-78
2023/10/01 07:50:12;;;;;;;1999.90;999.90;;;19.90;99.90;;;;;;5036659;28;20057;-76
2023/10/01 07:52:40;;;;;;;1999.90;999.90;;;19.80;99.90;;;;;;5043124;28;20416;-78
2023/10/01 07:57:52;;;;;;;1999.90;999.90;;;19.80;99.90;;;;;;5049890;28;20044;-78
2023/10/01 08:00:29;;;;;;;1999.90;999.90;;;19.90;99.90;;;;;;5054244;28;20025;-76
2023/10/01 08:03:48;;;;;;;1999.90;999.90;;;20.10;99.90;;;;;;5053908;28;20032;-78
2023/10/01 08:05:47;;;;;;;1999.90;999.90;;;20.40;99.90;;;;;;5045561;28;20503;-78
2023/10/01 08:08:14;;;;;;;1999.90;999.90;;;20.60;99.90;;;;;;5046667;28;20032;-78
2023/10/01 08:10:40;;;;;;;1999.90;999.90;;;21.00;99.90;;;;;;5036110;28;20030;-76
2023/10/01 08:13:16;;;;;;;1999.90;999.90;;;21.70;99.90;;;;;;5054095;28;20028;-76
2023/10/01 08:15:57;;;;;;;1999.90;999.90;;;22.20;99.90;;;;;;5053977;28;20017;-78
2023/10/01 08:18:35;;;;;;;1999.90;999.90;;;22.70;99.90;;;;;;5054145;28;20016;-76
2023/10/01 08:21:02;;;;;;;1999.90;999.90;;;22.30;99.90;;;;;;5053772;28;20025;-78
2023/10/01 08:23:45;;;;;;;1999.90;999.90;;;23.30;99.90;;;;;;5053681;28;20050;-76
2023/10/01 08:28:57;;;;;;;1999.90;999.90;;;26.00;99.90;;;;;;5045759;28;20044;-76
2023/10/01 08:34:23;;;;;;;1999.90;999.90;;;26.40;99.90;;;;;;5033632;28;20044;-78
2023/10/01 08:37:07;;;;;;;1999.90;999.90;;;25.40;99.90;;;;;;5033890;28;20092;-78
2023/10/01 08:39:48;;;;;;;1999.90;999.90;;;24.40;99.90;;;;;;5052294;28;20029;-76
2023/10/01 08:42:17;;;;;;;1999.90;999.90;;;25.40;99.90;;;;;;5053921;28;20017;-79
2023/10/01 08:44:50;;;;;;;1999.90;999.90;;;27.30;99.90;;;;;;5040658;28;20041;-76
2023/10/01 08:47:22;;;;;;;1999.90;999.90;;;28.40;99.90;;;;;;5033428;28;20436;-79
2023/10/01 08:49:51;;;;;;;1999.90;999.90;;;28.80;99.90;;;;;;5033315;28;20029;-79
2023/10/01 08:52:25;;;;;;;1999.90;999.90;;;29.20;99.90;;;;;;5033627;28;20020;-77
2023/10/01 08:54:53;;;;;;;1999.90;999.90;;;30.10;99.90;;;;;;5033314;28;20100;-79
2023/10/01 08:57:36;;;;;;;1999.90;999.90;;;30.40;99.90;;;;;;5044324;28;20017;-77
2023/10/01 09:00:17;;;;;;;1999.90;999.90;;;31.00;99.90;;;;;;5051916;28;20488;-79
2023/10/01 09:02:49;;;;;;;1999.90;999.90;;;31.40;99.90;;;;;;5053131;28;20029;-74
2023/10/01 09:05:23;;;;;;;1999.90;999.90;;;32.00;99.90;;;;;;5052836;28;20113;-74
2023/10/01 09:07:50;;;;;;;1999.90;999.90;;;32.10;99.90;;;;;;5044914;28;20021;-76
2023/10/01 09:10:19;;;;;;;1999.90;999.90;;;31.80;99.90;;;;;;5037536;28;20018;-76
2023/10/01 09:12:48;;;;;;;1999.90;999.90;;;31.80;99.90;;;;;;5051176;28;20021;-76
2023/10/01 09:15:27;;;;;;;1999.90;999.90;;;31.40;99.90;;;;;;5052163;28;20491;-76
2023/10/01 09:17:56;;;;;;;1999.90;999.90;;;30.90;99.90;;;;;;5051651;28;20025;-77
2023/10/01 09:20:42;;;;;;;1999.90;999.90;;;30.10;99.90;;;;;;5051453;28;20040;-79
2023/10/01 09:23:08;;;;;;;1999.90;999.90;;;29.00;99.90;;;;;;5052829;28;20535;-77
2023/10/01 09:25:39;;;;;;;1999.90;999.90;;;28.20;99.90;;;;;;5052705;28;20103;-79
2023/10/01 09:28:22;;;;;;;1999.90;999.90;;;27.20;99.90;;;;;;5053164;28;20024;-79
2023/10/01 09:31:26;;;;;;;1999.90;999.90;;;26.60;99.90;;;;;;5051479;28;20448;-77
2023/10/01 09:33:52;;;;;;;1999.90;999.90;;;26.50;99.90;;;;;;5045462;28;20470;-79
2023/10/01 09:36:45;;;;;;;1999.90;999.90;;;26.00;99.90;;;;;;5052990;28;20063;-76
2023/10/01 09:39:13;;;;;;;1999.90;999.90;;;25.90;99.90;;;;;;5051387;28;20025;-79
2023/10/01 09:41:43;;;;;;;1999.90;999.90;;;26.00;99.90;;;;;;5051387;28;20538;-77
2023/10/01 09:44:14;;;;;;;1999.90;999.90;;;26.20;99.90;;;;;;5052574;28;20068;-79
2023/10/01 09:46:41;;;;;;;1999.90;999.90;;;26.10;99.90;;;;;;5052586;28;20071;-79
2023/10/01 09:49:08;;;;;;;1999.90;999.90;;;26.20;99.90;;;;;;5051264;28;20438;-79
2023/10/01 09:51:41;;;;;;;1999.90;999.90;;;26.40;99.90;;;;;;5032219;28;20162;-77
2023/10/01 09:54:11;;;;;;;1999.90;999.90;;;26.10;99.90;;;;;;5034871;28;20017;-77
2023/10/01 09:59:08;;;;;;;1999.90;999.90;;;26.20;99.90;;;;;;5035683;28;20025;-78
2023/10/01 10:01:36;;;;;;;1999.90;999.90;;;26.20;99.90;;;;;;5050975;28;20025;-77
2023/10/01 10:04:07;;;;;;;1999.90;999.90;;;26.20;99.90;;;;;;5052358;28;20052;-77
2023/10/01 10:06:34;;;;;;;1999.90;999.90;;;26.40;99.90;;;;;;5050291;28;20032;-78
2023/10/01 10:09:05;;;;;;;1999.90;999.90;;;26.30;99.90;;;;;;5040632;28;20044;-77
2023/10/01 10:11:40;;;;;;;1999.90;999.90;;;26.20;99.90;;;;;;5040397;28;20022;-77
2023/10/01 10:14:26;;;;;;;1999.90;999.90;;;26.00;99.90;;;;;;5051715;28;20395;-78
2023/10/01 10:16:59;;;;;;;1999.90;999.90;;;26.10;99.90;;;;;;5051008;28;20025;-78
2023/10/01 10:19:31;;;;;;;1999.90;999.90;;;26.30;99.90;;;;;;5052782;28;20032;-78
2023/10/01 10:24:29;;;;;;;1999.90;999.90;;;26.50;99.90;;;;;;5052364;28;20488;-77
2023/10/01 10:27:03;;;;;;;1999.90;999.90;;;26.70;99.90;;;;;;5053309;28;20472;-78
2023/10/01 10:29:46;;;;;;;1999.90;999.90;;;26.50;99.90;;;;;;5056176;28;20040;-78
2023/10/01 10:32:13;;;;;;;1999.90;999.90;;;26.40;99.90;;;;;;5056154;28;20474;-78
2023/10/01 10:35:03;;;;;;;1999.90;999.90;;;26.70;99.90;;;;;;5054604;28;20396;-77
2023/10/01 10:37:35;;;;;;;1999.90;999.90;;;26.90;99.90;;;;;;5055628;28;20031;-78
2023/10/01 10:43:16;;;;;;;1999.90;999.90;;;26.80;99.90;;;;;;5055835;28;20032;-78
2023/10/01 10:45:48;;;;;;;1999.90;999.90;;;26.80;99.90;;;;;;5055161;28;20037;-78
2023/10/01 10:48:17;;;;;;;1999.90;999.90;;;26.60;99.90;;;;;;5055563;28;20033;-77
2023/10/01 10:50:50;;;;;;;1999.90;999.90;;;26.50;99.90;;;;;;5055598;28;20100;-78
2023/10/01 10:53:24;;;;;;;1999.90;999.90;;;26.80;99.90;;;;;;5054337;28;20032;-78
2023/10/01 10:56:00;;;;;;;1999.90;999.90;;;26.80;99.90;;;;;;5055672;28;20029;-78
2023/10/01 10:58:28;;;;;;;1999.90;999.90;;;26.80;99.90;;;;;;5035656;28;20029;-78
2023/10/01 11:00:56;;;;;;;1999.90;999.90;;;27.00;99.90;;;;;;5034164;28;20036;-76
2023/10/01 11:03:40;;;;;;;1999.90;999.90;;;27.20;99.90;;;;;;5050269;28;20013;-78
2023/10/01 11:06:23;;;;;;;1999.90;999.90;;;27.30;99.90;;;;;;5055255;28;20025;-78
2023/10/01 11:08:53;;;;;;;1999.90;999.90;;;27.10;99.90;;;;;;5046449;28;20029;-76
2023/10/01 11:11:21;;;;;;;1999.90;999.90;;;27.10;99.90;;;;;;5035373;28;20044;-78
2023/10/01 11:13:58;;;;;;;1999.90;999.90;;;27.20;99.90;;;;;;5035236;28;20036;-76
2023/10/01 11:16:24;;;;;;;1999.90;999.90;;;27.10;99.90;;;;;;5033923;28;20401;-79
2023/10/01 11:18:50;;;;;;;1999.90;999.90;;;27.50;99.90;;;;;;5035483;28;20028;-78
2023/10/01 11:21:24;;;;;;;1999.90;999.90;;;27.70;99.90;;;;;;5033803;28;20036;-77
2023/10/01 11:23:53;;;;;;;1999.90;999.90;;;27.80;99.90;;;;;;5033732;28;20026;-78
2023/10/01 11:26:29;;;;;;;1999.90;999.90;;;27.90;99.90;;;;;;5033611;28;20053;-79
2023/10/01 11:29:02;;;;;;;1999.90;999.90;;;27.90;99.90;;;;;;5035033;28;20025;-77
2023/10/01 11:31:30;;;;;;;;;;;28.00;99.90;;;;;;5035809;28;20494;-78
2023/10/01 11:34:06;;;;;;;1999.90;999.90;;;27.90;99.90;;;;;;5033682;28;19992;-78
2023/10/01 11:36:40;;;;;;;1999.90;999.90;;;28.00;99.90;;;;;;5035385;28;20155;-78
2023/10/01 11:39:06;;;;;;;1999.90;999.90;;;28.20;99.90;;;;;;5048876;28;20029;-76
2023/10/01 11:41:41;;;;;;;1999.90;999.90;;;28.20;99.90;;;;;;5054802;28;20032;-77
2023/10/01 11:44:09;;;;;;;1999.90;999.90;;;28.10;99.90;;;;;;5054611;28;20503;-78
2023/10/01 11:49:34;;;;;;;1999.90;999.90;;;28.20;99.90;;;;;;5054748;28;20079;-78
2023/10/01 11:52:21;;;;;;;1999.90;999.90;;;28.30;99.90;;;;;;5054505;28;20021;-76
2023/10/01 11:54:53;;;;;;;1999.90;999.90;;;28.30;99.90;;;;;;5053196;28;20111;-76
2023/10/01 11:57:23;;;;;;;1999.90;999.90;;;28.30;99.90;;;;;;5054239;28;20031;-78
2023/10/01 11:59:56;;;;;;;1999.90;999.90;;;28.40;99.90;;;;;;5052892;28;20028;-79
2023/10/01 12:02:26;;;;;;;1999.90;999.90;;;28.40;99.90;;;;;;5052805;28;20452;-78
2023/10/01 12:04:56;;;;;;;1999.90;999.90;;;28.60;99.90;;;;;;5054193;28;20384;-77
2023/10/01 12:07:26;;;;;;;1999.90;999.90;;;28.70;99.90;;;;;;5047193;28;20388;-77
2023/10/01 12:09:54;;;;;;;1999.90;999.90;;;28.70;99.90;;;;;;5044051;28;20135;-77
2023/10/01 12:12:27;;;;;;;1999.90;999.90;;;28.80;99.90;;;;;;5052670;28;20112;-78
2023/10/01 12:15:33;;;;;;;1999.90;999.90;;;28.70;99.90;;;;;;5052491;28;20039;-77
2023/10/01 12:17:44;;;;;;;1999.90;999.90;;;28.80;99.90;;;;;;5053095;28;20028;-77
2023/10/01 12:20:22;;;;;;;1999.90;999.90;;;29.10;99.90;;;;;;5054158;28;20047;-77
2023/10/01 12:23:10;;;;;;;1999.90;999.90;;;29.40;99.90;;;;;;5053329;28;20025;-78
2023/10/01 12:25:46;;;;;;;1999.90;999.90;;;29.50;99.90;;;;;;5051655;28;20049;-77
2023/10/01 12:28:27;;;;;;;1999.90;999.90;;;29.60;99.90;;;;;;5052355;28;20021;-78
2023/10/01 12:31:09;;;;;;;1999.90;999.90;;;29.60;99.90;;;;;;5053890;28;20104;-77
2023/10/01 12:33:40;;;;;;;1999.90;999.90;;;29.50;99.90;;;;;;5053530;28;20108;-78
2023/10/01 12:42:11;;;;;;;1999.90;999.90;;;30.00;99.90;;;;;;5053828;28;20024;-78
2023/10/01 12:44:28;;;;;;;1999.90;999.90;;;30.10;99.90;;;;;;5051019;28;20408;-77
2023/10/01 12:47:07;;;;;;;1999.90;999.90;;;30.40;99.90;;;;;;5053474;28;20048;-77
2023/10/01 12:49:34;;;;;;;1999.90;999.90;;;30.40;99.90;;;;;;5053316;28;20387;-78
2023/10/01 12:52:00;;;;;;;1999.90;999.90;;;30.00;99.90;;;;;;5052712;28;20407;-77
2023/10/01 12:54:26;;;;;;;1999.90;999.90;;;30.00;99.90;;;;;;5053396;28;20126;-77
2023/10/01 12:57:02;;;;;;;1999.90;999.90;;;30.10;99.90;;;;;;5045937;28;20501;-77
2023/10/01 12:59:42;;;;;;;1999.90;999.90;;;30.30;99.90;;;;;;5034515;28;20040;-78
2023/10/01 13:07:50;;;;;;;1999.90;999.90;;;30.50;99.90;;;;;;5047409;28;20028;-78
2023/10/01 13:10:17;;;;;;;1999.90;999.90;;;30.20;99.90;;;;;;5053170;28;20511;-77
2023/10/01 13:12:59;;;;;;;1999.90;999.90;;;30.40;99.90;;;;;;5052825;28;20021;-77